createdAt,value
2019-05-09T00:00:05.604Z,16.00
2019-05-09T00:05:13.822Z,15.90
2019-05-09T00:10:19.020Z,16.00
2019-05-09T00:15:24.713Z,16.00
2019-05-09T00:20:45.023Z,16.00
2019-05-09T00:25:50.590Z,15.90
2019-05-09T00:31:10.818Z,16.10
2019-05-09T00:36:16.326Z,16.10
2019-05-09T00:41:23.763Z,16.20
2019-05-09T00:46:48.850Z,16.00
2019-05-09T00:51:54.270Z,16.00
2019-05-09T00:56:59.687Z,15.80
2019-05-09T01:02:05.317Z,15.50
2019-05-09T01:07:10.752Z,15.50
2019-05-09T01:12:16.255Z,15.40
2019-05-09T01:17:23.928Z,15.10
2019-05-09T01:22:28.733Z,15.00
2019-05-09T01:27:34.299Z,14.90
2019-05-09T01:33:03.612Z,14.90
2019-05-09T01:38:08.551Z,14.80
2019-05-09T01:43:14.048Z,14.80
2019-05-09T01:48:19.559Z,14.60
2019-05-09T01:53:30.012Z,14.50
2019-05-09T01:58:35.508Z,14.30
2019-05-09T02:03:41.432Z,14.20
2019-05-09T02:08:47.209Z,14.10
2019-05-09T02:13:53.479Z,14.10
2019-05-09T02:19:06.312Z,14.00
2019-05-09T02:24:14.113Z,14.00
2019-05-09T02:29:19.504Z,14.00
2019-05-09T02:34:25.243Z,14.00
2019-05-09T02:39:30.968Z,13.90
2019-05-09T02:44:39.504Z,13.80
2019-05-09T02:49:44.078Z,13.70
2019-05-09T02:54:50.334Z,13.70
2019-05-09T03:00:10.570Z,13.60
2019-05-09T03:05:19.254Z,13.60
2019-05-09T03:10:24.447Z,13.60
2019-05-09T03:15:30.280Z,13.60
2019-05-09T03:20:58.522Z,13.40
2019-05-09T03:26:05.092Z,13.20
2019-05-09T03:31:11.723Z,13.20
2019-05-09T03:36:18.141Z,12.90
2019-05-09T03:41:23.860Z,12.70
2019-05-09T03:46:54.460Z,12.90
2019-05-09T03:51:59.947Z,12.70
2019-05-09T03:57:17.970Z,12.80
2019-05-09T04:02:23.801Z,12.90
2019-05-09T04:07:29.927Z,13.00
2019-05-09T04:12:37.590Z,12.70
2019-05-09T04:17:43.734Z,12.70
2019-05-09T04:22:49.491Z,12.80
2019-05-09T04:27:55.383Z,12.60
2019-05-09T04:33:01.154Z,12.70
2019-05-09T04:38:07.425Z,12.60
2019-05-09T04:43:18.807Z,12.50
2019-05-09T04:48:37.612Z,12.70
2019-05-09T04:53:43.541Z,12.90
2019-05-09T04:58:49.082Z,13.00
2019-05-09T05:03:57.334Z,13.10
2019-05-09T05:09:03.427Z,13.00
2019-05-09T05:14:11.821Z,13.00
2019-05-09T05:19:17.724Z,13.00
2019-05-09T05:24:28.126Z,13.00
2019-05-09T05:29:33.971Z,13.20
2019-05-09T05:34:45.483Z,13.30
2019-05-09T05:39:50.934Z,13.60
2019-05-09T05:44:58.246Z,13.90
2019-05-09T05:50:04.456Z,14.00
2019-05-09T05:55:10.510Z,14.20
2019-05-09T06:00:18.071Z,14.50
2019-05-09T06:05:23.855Z,14.80
2019-05-09T06:10:30.552Z,15.10
2019-05-09T06:15:37.898Z,15.20
2019-05-09T06:20:45.804Z,15.40
2019-05-09T06:25:51.881Z,15.60
2019-05-09T06:30:58.509Z,15.80
2019-05-09T06:36:04.565Z,16.00
2019-05-09T06:41:12.181Z,16.20
2019-05-09T06:46:32.965Z,16.50
2019-05-09T06:51:38.869Z,16.60
2019-05-09T06:56:44.488Z,16.70
2019-05-09T07:01:59.609Z,16.80
2019-05-09T07:07:10.120Z,16.90
2019-05-09T07:12:17.928Z,17.10
2019-05-09T07:17:23.058Z,16.90
2019-05-09T07:22:58.328Z,17.20
2019-05-09T07:28:04.254Z,17.00
2019-05-09T07:33:34.879Z,17.00
2019-05-09T07:38:40.498Z,17.20
2019-05-09T07:43:47.822Z,17.40
2019-05-09T07:48:53.824Z,17.50
2019-05-09T07:53:59.266Z,17.60
2019-05-09T07:59:05.031Z,17.60
2019-05-09T08:04:10.486Z,17.60
2019-05-09T08:09:18.491Z,17.60
2019-05-09T08:14:23.113Z,17.50
2019-05-09T08:19:28.576Z,17.60
2019-05-09T08:24:34.552Z,17.70
2019-05-09T08:29:40.958Z,17.80
2019-05-09T08:34:48.196Z,17.60
2019-05-09T08:39:53.536Z,17.70
2019-05-09T08:44:59.306Z,17.80
2019-05-09T08:50:17.455Z,18.00
2019-05-09T08:55:22.259Z,18.10
2019-05-09T09:00:28.322Z,17.90
2019-05-09T09:05:34.511Z,17.90
2019-05-09T09:10:40.540Z,18.00
2019-05-09T09:16:04.933Z,17.90
2019-05-09T09:20:53.071Z,17.90
2019-05-09T09:25:58.550Z,17.90
2019-05-09T09:31:04.043Z,18.10
2019-05-09T09:36:09.597Z,18.30
2019-05-09T09:41:15.085Z,18.30
2019-05-09T09:46:20.501Z,18.40
2019-05-09T09:51:29.215Z,18.40
2019-05-09T09:56:34.659Z,18.50
2019-05-09T10:01:42.249Z,18.50
2019-05-09T10:06:48.693Z,18.70
2019-05-09T10:11:57.039Z,18.70
2019-05-09T10:17:28.108Z,18.80
2019-05-09T10:22:34.586Z,18.70
2019-05-09T10:27:40.200Z,18.90
2019-05-09T10:32:47.645Z,18.90
2019-05-09T10:37:53.135Z,19.20
2019-05-09T10:43:09.078Z,19.40
2019-05-09T10:48:15.232Z,19.70
2019-05-09T10:53:21.236Z,20.20
2019-05-09T10:58:28.897Z,20.40
2019-05-09T11:03:34.276Z,20.20
2019-05-09T11:08:39.893Z,20.40
2019-05-09T11:13:47.899Z,21.00
2019-05-09T11:18:52.699Z,22.50
2019-05-09T11:23:58.653Z,22.40
2019-05-09T11:29:04.490Z,22.70
2019-05-09T11:34:12.115Z,22.00
2019-05-09T11:39:35.130Z,22.50
2019-05-09T11:44:27.261Z,22.80
2019-05-09T11:49:32.881Z,23.20
2019-05-09T11:54:38.853Z,23.50
2019-05-09T11:59:44.631Z,23.40
2019-05-09T12:04:53.248Z,23.70
2019-05-09T12:10:02.979Z,23.60
2019-05-09T12:15:09.064Z,24.00
2019-05-09T12:20:14.715Z,24.40
2019-05-09T12:25:20.139Z,23.50
2019-05-09T12:30:28.259Z,24.00
2019-05-09T12:35:32.890Z,24.10
2019-05-09T12:40:38.829Z,24.70
2019-05-09T12:45:44.601Z,24.70
2019-05-09T12:50:50.117Z,24.20
2019-05-09T12:56:01.753Z,24.40
2019-05-09T13:01:07.652Z,24.70
2019-05-09T13:06:13.682Z,25.00
2019-05-09T13:11:20.175Z,25.00
2019-05-09T13:16:47.537Z,25.40
2019-05-09T13:21:42.131Z,25.00
2019-05-09T13:26:49.770Z,25.40
2019-05-09T13:31:57.566Z,23.80
2019-05-09T13:37:02.408Z,24.90
2019-05-09T13:42:08.304Z,24.80
2019-05-09T13:47:13.795Z,25.00
2019-05-09T13:52:19.232Z,25.10
2019-05-09T13:57:24.847Z,25.60
2019-05-09T14:02:30.531Z,25.60
2019-05-09T14:07:37.754Z,25.70
2019-05-09T14:12:43.023Z,26.00
2019-05-09T14:17:53.151Z,26.10
2019-05-09T14:22:57.556Z,25.70
2019-05-09T14:28:02.594Z,26.40
2019-05-09T14:33:08.294Z,27.50
2019-05-09T14:38:14.000Z,26.80
2019-05-09T14:43:19.443Z,27.00
2019-05-09T14:48:24.868Z,26.80
2019-05-09T14:53:30.272Z,27.00
2019-05-09T14:58:38.038Z,26.80
2019-05-09T15:03:43.439Z,27.10
2019-05-09T15:08:49.328Z,26.50
2019-05-09T15:13:54.871Z,26.50
2019-05-09T15:19:00.529Z,27.40
2019-05-09T15:24:05.999Z,27.30
2019-05-09T15:29:11.526Z,27.00
2019-05-09T15:34:18.564Z,26.70
2019-05-09T15:39:24.294Z,27.30
2019-05-09T15:44:29.725Z,26.70
2019-05-09T15:49:35.103Z,25.90
2019-05-09T15:54:40.512Z,27.10
2019-05-09T15:59:47.903Z,26.80
2019-05-09T16:04:53.015Z,26.70
2019-05-09T16:09:58.684Z,26.90
2019-05-09T16:15:04.228Z,26.50
2019-05-09T16:20:09.913Z,26.30
2019-05-09T16:25:15.632Z,26.40
2019-05-09T16:30:21.290Z,26.40
2019-05-09T16:35:28.621Z,26.20
2019-05-09T16:40:33.747Z,26.00
2019-05-09T16:45:39.336Z,25.50
2019-05-09T16:50:59.552Z,25.30
2019-05-09T16:55:52.031Z,26.50
2019-05-09T17:00:57.402Z,26.70
2019-05-09T17:06:02.913Z,25.90
2019-05-09T17:11:08.323Z,25.90
2019-05-09T17:16:13.878Z,25.80
2019-05-09T17:21:33.087Z,24.80
2019-05-09T17:26:38.669Z,23.80
2019-05-09T17:31:44.288Z,23.70
2019-05-09T17:36:49.847Z,23.40
2019-05-09T17:41:55.273Z,23.60
2019-05-09T17:47:00.764Z,23.40
2019-05-09T17:52:07.571Z,23.00
2019-05-09T17:57:13.752Z,22.40
2019-05-09T18:02:20.178Z,21.00
2019-05-09T18:07:27.903Z,20.50
2019-05-09T18:12:32.722Z,20.20
2019-05-09T18:17:38.470Z,19.90
2019-05-09T18:22:44.375Z,19.80
2019-05-09T18:27:49.830Z,19.80
2019-05-09T18:33:16.898Z,19.80
2019-05-09T18:38:29.422Z,19.70
2019-05-09T18:43:35.162Z,19.50
2019-05-09T18:48:40.693Z,19.50
2019-05-09T18:53:46.116Z,19.50
2019-05-09T18:58:51.659Z,19.20
2019-05-09T19:03:57.747Z,19.50
2019-05-09T19:09:05.667Z,19.50
2019-05-09T19:14:12.680Z,19.30
2019-05-09T19:19:30.943Z,19.60
2019-05-09T19:24:36.336Z,19.40
2019-05-09T19:29:42.103Z,19.30
2019-05-09T19:34:48.015Z,19.30
2019-05-09T19:39:53.426Z,19.20
2019-05-09T19:44:58.844Z,19.10
2019-05-09T19:50:04.635Z,19.00
2019-05-09T19:55:10.188Z,18.80
2019-05-09T20:00:17.404Z,18.60
2019-05-09T20:05:23.087Z,18.40
2019-05-09T20:10:45.987Z,18.60
2019-05-09T20:15:51.495Z,18.50
2019-05-09T20:20:56.915Z,18.50
2019-05-09T20:26:02.604Z,18.40
2019-05-09T20:31:08.048Z,18.30
2019-05-09T20:36:13.442Z,18.30
2019-05-09T20:41:19.140Z,18.30
2019-05-09T20:46:24.933Z,18.00
2019-05-09T20:51:31.235Z,17.70
2019-05-09T20:56:37.166Z,17.80
2019-05-09T21:01:42.799Z,18.00
2019-05-09T21:06:48.533Z,17.80
2019-05-09T21:11:54.346Z,18.10
2019-05-09T21:17:00.274Z,18.00
2019-05-09T21:22:06.114Z,17.80
2019-05-09T21:27:11.739Z,17.60
2019-05-09T21:32:17.323Z,17.70
2019-05-09T21:37:22.736Z,17.70
2019-05-09T21:42:28.231Z,17.90
2019-05-09T21:47:33.916Z,17.70
2019-05-09T21:52:39.343Z,17.60
2019-05-09T21:57:44.788Z,17.50
2019-05-09T22:02:50.327Z,17.30
2019-05-09T22:07:55.905Z,17.20
2019-05-09T22:13:01.424Z,17.10
2019-05-09T22:18:07.084Z,17.10
2019-05-09T22:23:12.731Z,17.40
2019-05-09T22:28:18.146Z,17.50
2019-05-09T22:33:23.555Z,17.60
2019-05-09T22:38:29.311Z,17.60
2019-05-09T22:43:34.691Z,17.50
2019-05-09T22:48:40.137Z,17.40
2019-05-09T22:53:45.576Z,17.20
2019-05-09T22:58:50.950Z,17.20
2019-05-09T23:03:56.439Z,17.10
2019-05-09T23:09:01.916Z,16.80
2019-05-09T23:14:07.646Z,16.70
2019-05-09T23:19:13.106Z,16.80
2019-05-09T23:24:28.266Z,16.80
2019-05-09T23:29:27.226Z,16.80
2019-05-09T23:34:32.626Z,16.90
2019-05-09T23:39:41.779Z,17.00
2019-05-09T23:44:47.253Z,17.00
2019-05-09T23:49:52.704Z,17.20
2019-05-09T23:55:15.954Z,17.50
